Terminal Aerodrome Forecast
Issued by NWS

Home | Current Version | Previous Version | Text Only | Print | Product List | Glossary On
Versions: 1 2 3 4 5 6 7 8 9 10 11 12 13 14 15 16 17 18
000
FTUS43 KDDC 251720
TAFGCK
TAF
KGCK 251720Z 2518/2618 36009KT P6SM OVC007
     FM251900 04007KT P6SM OVC025
     FM252000 04008KT P6SM OVC035
     FM260000 07009KT P6SM OVC040
     FM260600 04009KT P6SM OVC070 PROB30 2606/2609 4SM -TSRA
      OVC040CB
     FM261200 08006KT P6SM OVC003
     FM261400 10005KT P6SM BKN070=

USA.gov is the U.S. government's official web portal to all federal, state and local government web resources and services.